sensor_id;sensor_type;location;lat;lon;timestamp;temperature;humidity
82183;DHT22;71763;52.220;13.000;2023-10-09T00:02:02;11.90;56.80
82183;DHT22;71763;52.220;13.000;2023-10-09T00:04:31;11.80;56.80
82183;DHT22;71763;52.220;13.000;2023-10-09T00:06:57;11.90;56.90
82183;DHT22;71763;52.220;13.000;2023-10-09T00:09:24;11.90;57.00
82183;DHT22;71763;52.220;13.000;2023-10-09T00:11:51;11.90;56.90
82183;DHT22;71763;52.220;13.000;2023-10-09T00:14:24;11.90;57.00
82183;DHT22;71763;52.220;13.000;2023-10-09T00:16:51;11.90;57.10
82183;DHT22;71763;52.220;13.000;2023-10-09T00:19:22;11.90;57.10
82183;DHT22;71763;52.220;13.000;2023-10-09T00:21:56;11.80;57.10
82183;DHT22;71763;52.220;13.000;2023-10-09T00:24:24;11.90;57.20
82183;DHT22;71763;52.220;13.000;2023-10-09T00:26:54;11.90;57.30
82183;DHT22;71763;52.220;13.000;2023-10-09T00:29:36;11.80;57.30
82183;DHT22;71763;52.220;13.000;2023-10-09T00:32:07;11.80;57.40
82183;DHT22;71763;52.220;13.000;2023-10-09T00:34:42;11.80;57.40
82183;DHT22;71763;52.220;13.000;2023-10-09T00:37:11;11.80;58.20
82183;DHT22;71763;52.220;13.000;2023-10-09T00:39:48;11.80;57.60
82183;DHT22;71763;52.220;13.000;2023-10-09T00:42:15;11.70;57.60
82183;DHT22;71763;52.220;13.000;2023-10-09T00:44:51;11.70;57.70
82183;DHT22;71763;52.220;13.000;2023-10-09T00:47:17;11.70;57.70
82183;DHT22;71763;52.220;13.000;2023-10-09T00:49:51;11.70;57.70
82183;DHT22;71763;52.220;13.000;2023-10-09T00:52:24;11.70;57.70
82183;DHT22;71763;52.220;13.000;2023-10-09T00:55:01;11.70;57.80
82183;DHT22;71763;52.220;13.000;2023-10-09T00:57:30;11.70;57.80
82183;DHT22;71763;52.220;13.000;2023-10-09T00:59:59;11.70;58.00
82183;DHT22;71763;52.220;13.000;2023-10-09T01:02:28;11.70;58.00
82183;DHT22;71763;52.220;13.000;2023-10-09T01:05:08;11.60;57.90
82183;DHT22;71763;52.220;13.000;2023-10-09T01:07:46;11.60;58.00
82183;DHT22;71763;52.220;13.000;2023-10-09T01:10:12;11.60;58.20
82183;DHT22;71763;52.220;13.000;2023-10-09T01:12:41;11.60;58.20
82183;DHT22;71763;52.220;13.000;2023-10-09T01:15:10;11.60;58.20
82183;DHT22;71763;52.220;13.000;2023-10-09T01:17:43;11.60;58.20
82183;DHT22;71763;52.220;13.000;2023-10-09T01:20:11;11.70;58.40
82183;DHT22;71763;52.220;13.000;2023-10-09T01:22:52;11.70;58.30
82183;DHT22;71763;52.220;13.000;2023-10-09T01:25:18;11.60;58.30
82183;DHT22;71763;52.220;13.000;2023-10-09T01:27:45;11.60;58.30
82183;DHT22;71763;52.220;13.000;2023-10-09T01:30:11;11.60;58.30
82183;DHT22;71763;52.220;13.000;2023-10-09T01:32:39;11.60;58.60
82183;DHT22;71763;52.220;13.000;2023-10-09T01:35:06;11.70;58.60
82183;DHT22;71763;52.220;13.000;2023-10-09T01:37:40;11.60;58.50
82183;DHT22;71763;52.220;13.000;2023-10-09T01:40:08;11.60;58.90
82183;DHT22;71763;52.220;13.000;2023-10-09T01:42:52;11.60;58.80
82183;DHT22;71763;52.220;13.000;2023-10-09T01:45:18;11.60;58.80
82183;DHT22;71763;52.220;13.000;2023-10-09T01:47:49;11.60;58.80
82183;DHT22;71763;52.220;13.000;2023-10-09T01:50:19;11.50;58.80
82183;DHT22;71763;52.220;13.000;2023-10-09T01:52:47;11.50;58.80
82183;DHT22;71763;52.220;13.000;2023-10-09T01:55:13;11.40;58.70
82183;DHT22;71763;52.220;13.000;2023-10-09T01:57:53;11.40;58.70
82183;DHT22;71763;52.220;13.000;2023-10-09T02:00:18;11.40;58.70
82183;DHT22;71763;52.220;13.000;2023-10-09T02:02:49;11.40;58.70
82183;DHT22;71763;52.220;13.000;2023-10-09T02:05:16;11.40;58.70
82183;DHT22;71763;52.220;13.000;2023-10-09T02:07:42;11.40;58.70
82183;DHT22;71763;52.220;13.000;2023-10-09T02:10:17;11.30;58.60
82183;DHT22;71763;52.220;13.000;2023-10-09T02:13:03;11.30;58.60
82183;DHT22;71763;52.220;13.000;2023-10-09T02:15:33;11.30;58.60
82183;DHT22;71763;52.220;13.000;2023-10-09T02:18:12;11.30;58.60
82183;DHT22;71763;52.220;13.000;2023-10-09T02:21:06;11.30;58.60
82183;DHT22;71763;52.220;13.000;2023-10-09T02:23:33;11.20;58.50
82183;DHT22;71763;52.220;13.000;2023-10-09T02:26:15;11.20;58.50
82183;DHT22;71763;52.220;13.000;2023-10-09T02:28:50;11.20;58.50
82183;DHT22;71763;52.220;13.000;2023-10-09T02:31:26;11.30;58.60
82183;DHT22;71763;52.220;13.000;2023-10-09T02:33:59;11.30;58.60
82183;DHT22;71763;52.220;13.000;2023-10-09T02:36:25;11.30;58.60
82183;DHT22;71763;52.220;13.000;2023-10-09T02:38:53;11.30;58.60
82183;DHT22;71763;52.220;13.000;2023-10-09T02:41:21;11.30;58.60
82183;DHT22;71763;52.220;13.000;2023-10-09T02:43:48;11.30;58.60
82183;DHT22;71763;52.220;13.000;2023-10-09T02:46:19;11.30;58.60
82183;DHT22;71763;52.220;13.000;2023-10-09T02:48:58;11.30;58.60
82183;DHT22;71763;52.220;13.000;2023-10-09T02:51:27;11.30;58.60
82183;DHT22;71763;52.220;13.000;2023-10-09T02:53:57;11.30;58.60
82183;DHT22;71763;52.220;13.000;2023-10-09T02:56:24;11.30;58.60
82183;DHT22;71763;52.220;13.000;2023-10-09T02:58:54;11.20;58.50
82183;DHT22;71763;52.220;13.000;2023-10-09T03:01:19;11.20;58.50
82183;DHT22;71763;52.220;13.000;2023-10-09T03:03:45;11.20;58.50
82183;DHT22;71763;52.220;13.000;2023-10-09T03:06:11;11.20;58.50
82183;DHT22;71763;52.220;13.000;2023-10-09T03:08:38;11.10;58.40
82183;DHT22;71763;52.220;13.000;2023-10-09T03:11:07;11.00;58.40
82183;DHT22;71763;52.220;13.000;2023-10-09T03:13:41;11.00;58.80
82183;DHT22;71763;52.220;13.000;2023-10-09T03:16:08;11.00;58.90
82183;DHT22;71763;52.220;13.000;2023-10-09T03:18:39;11.00;59.00
82183;DHT22;71763;52.220;13.000;2023-10-09T03:21:05;10.90;59.00
82183;DHT22;71763;52.220;13.000;2023-10-09T03:23:31;10.90;59.70
82183;DHT22;71763;52.220;13.000;2023-10-09T03:25:57;10.90;59.10
82183;DHT22;71763;52.220;13.000;2023-10-09T03:28:24;10.80;59.00
82183;DHT22;71763;52.220;13.000;2023-10-09T03:30:49;10.80;59.10
82183;DHT22;71763;52.220;13.000;2023-10-09T03:33:17;10.80;59.20
82183;DHT22;71763;52.220;13.000;2023-10-09T03:35:42;10.80;59.30
82183;DHT22;71763;52.220;13.000;2023-10-09T03:38:08;10.70;59.20
82183;DHT22;71763;52.220;13.000;2023-10-09T03:40:41;10.70;59.30
82183;DHT22;71763;52.220;13.000;2023-10-09T03:43:08;10.60;59.30
82183;DHT22;71763;52.220;13.000;2023-10-09T03:45:36;10.70;59.40
82183;DHT22;71763;52.220;13.000;2023-10-09T03:48:04;10.60;59.40
82183;DHT22;71763;52.220;13.000;2023-10-09T03:50:37;10.60;59.30
82183;DHT22;71763;52.220;13.000;2023-10-09T03:53:06;10.60;59.30
82183;DHT22;71763;52.220;13.000;2023-10-09T03:55:34;10.60;59.20
82183;DHT22;71763;52.220;13.000;2023-10-09T03:57:59;10.60;59.20
82183;DHT22;71763;52.220;13.000;2023-10-09T04:00:28;10.60;59.30
82183;DHT22;71763;52.220;13.000;2023-10-09T04:02:58;10.60;59.30
82183;DHT22;71763;52.220;13.000;2023-10-09T04:05:24;10.60;59.30
82183;DHT22;71763;52.220;13.000;2023-10-09T04:07:50;10.60;59.30
82183;DHT22;71763;52.220;13.000;2023-10-09T04:10:22;10.60;59.40
82183;DHT22;71763;52.220;13.000;2023-10-09T04:13:06;10.60;59.30
82183;DHT22;71763;52.220;13.000;2023-10-09T04:15:36;10.60;59.40
82183;DHT22;71763;52.220;13.000;2023-10-09T04:18:02;10.60;59.40
82183;DHT22;71763;52.220;13.000;2023-10-09T04:20:28;10.60;59.40
82183;DHT22;71763;52.220;13.000;2023-10-09T04:22:54;10.60;59.40
82183;DHT22;71763;52.220;13.000;2023-10-09T04:25:30;10.60;60.00
82183;DHT22;71763;52.220;13.000;2023-10-09T04:28:07;10.60;59.40
82183;DHT22;71763;52.220;13.000;2023-10-09T04:30:44;10.60;59.40
82183;DHT22;71763;52.220;13.000;2023-10-09T04:33:15;10.70;59.50
82183;DHT22;71763;52.220;13.000;2023-10-09T04:38:46;10.70;59.40
82183;DHT22;71763;52.220;13.000;2023-10-09T04:41:22;10.70;59.40
82183;DHT22;71763;52.220;13.000;2023-10-09T04:43:57;10.70;59.50
82183;DHT22;71763;52.220;13.000;2023-10-09T04:46:41;10.70;59.50
82183;DHT22;71763;52.220;13.000;2023-10-09T04:49:13;10.70;59.40
82183;DHT22;71763;52.220;13.000;2023-10-09T04:51:54;10.70;59.40
82183;DHT22;71763;52.220;13.000;2023-10-09T04:54:43;10.70;59.40
82183;DHT22;71763;52.220;13.000;2023-10-09T04:57:28;10.70;59.40
82183;DHT22;71763;52.220;13.000;2023-10-09T04:59:54;10.70;59.40
82183;DHT22;71763;52.220;13.000;2023-10-09T05:02:24;10.70;60.00
82183;DHT22;71763;52.220;13.000;2023-10-09T05:04:50;10.70;59.40
82183;DHT22;71763;52.220;13.000;2023-10-09T05:07:38;10.70;59.50
82183;DHT22;71763;52.220;13.000;2023-10-09T05:10:22;10.70;59.50
82183;DHT22;71763;52.220;13.000;2023-10-09T05:12:57;10.80;59.60
82183;DHT22;71763;52.220;13.000;2023-10-09T05:15:25;10.70;59.40
82183;DHT22;71763;52.220;13.000;2023-10-09T05:17:58;10.70;59.50
82183;DHT22;71763;52.220;13.000;2023-10-09T05:20:27;10.70;59.50
82183;DHT22;71763;52.220;13.000;2023-10-09T05:22:53;10.70;59.60
82183;DHT22;71763;52.220;13.000;2023-10-09T05:25:47;10.70;59.60
82183;DHT22;71763;52.220;13.000;2023-10-09T05:28:19;10.70;59.70
82183;DHT22;71763;52.220;13.000;2023-10-09T05:30:57;10.60;59.70
82183;DHT22;71763;52.220;13.000;2023-10-09T05:33:35;10.60;59.70
82183;DHT22;71763;52.220;13.000;2023-10-09T05:36:03;10.70;59.80
82183;DHT22;71763;52.220;13.000;2023-10-09T05:38:47;10.60;59.70
82183;DHT22;71763;52.220;13.000;2023-10-09T05:41:24;10.60;59.80
82183;DHT22;71763;52.220;13.000;2023-10-09T05:44:08;10.60;59.80
82183;DHT22;71763;52.220;13.000;2023-10-09T05:46:52;10.60;59.80
82183;DHT22;71763;52.220;13.000;2023-10-09T05:49:50;10.60;59.70
82183;DHT22;71763;52.220;13.000;2023-10-09T05:52:47;10.70;59.80
82183;DHT22;71763;52.220;13.000;2023-10-09T05:55:29;10.70;59.80
82183;DHT22;71763;52.220;13.000;2023-10-09T05:58:13;10.70;59.80
82183;DHT22;71763;52.220;13.000;2023-10-09T06:01:04;10.70;59.80
82183;DHT22;71763;52.220;13.000;2023-10-09T06:03:49;10.70;59.80
82183;DHT22;71763;52.220;13.000;2023-10-09T06:06:17;10.70;59.80
82183;DHT22;71763;52.220;13.000;2023-10-09T06:09:06;10.70;59.80
82183;DHT22;71763;52.220;13.000;2023-10-09T06:11:42;10.70;59.80
82183;DHT22;71763;52.220;13.000;2023-10-09T06:14:19;10.70;59.80
82183;DHT22;71763;52.220;13.000;2023-10-09T06:16:51;10.80;59.90
82183;DHT22;71763;52.220;13.000;2023-10-09T06:19:26;10.80;59.90
82183;DHT22;71763;52.220;13.000;2023-10-09T06:21:58;10.80;59.90
82183;DHT22;71763;52.220;13.000;2023-10-09T06:24:43;10.80;59.90
82183;DHT22;71763;52.220;13.000;2023-10-09T06:27:29;10.70;59.80
82183;DHT22;71763;52.220;13.000;2023-10-09T06:29:55;10.70;59.90
82183;DHT22;71763;52.220;13.000;2023-10-09T06:32:43;10.70;59.90
82183;DHT22;71763;52.220;13.000;2023-10-09T06:35:20;10.80;60.00
82183;DHT22;71763;52.220;13.000;2023-10-09T06:37:57;10.80;60.00
82183;DHT22;71763;52.220;13.000;2023-10-09T06:40:33;10.80;59.90
82183;DHT22;71763;52.220;13.000;2023-10-09T06:43:21;10.80;60.00
82183;DHT22;71763;52.220;13.000;2023-10-09T06:45:46;10.80;60.00
82183;DHT22;71763;52.220;13.000;2023-10-09T06:48:21;10.80;60.00
82183;DHT22;71763;52.220;13.000;2023-10-09T06:51:03;10.80;60.00
82183;DHT22;71763;52.220;13.000;2023-10-09T06:53:41;10.80;60.00
82183;DHT22;71763;52.220;13.000;2023-10-09T06:56:22;10.80;60.00
82183;DHT22;71763;52.220;13.000;2023-10-09T06:58:58;10.80;59.90
82183;DHT22;71763;52.220;13.000;2023-10-09T07:01:24;10.80;60.10
82183;DHT22;71763;52.220;13.000;2023-10-09T07:03:53;10.90;60.00
82183;DHT22;71763;52.220;13.000;2023-10-09T07:06:20;10.90;60.00
82183;DHT22;71763;52.220;13.000;2023-10-09T07:08:52;10.90;59.90
82183;DHT22;71763;52.220;13.000;2023-10-09T07:11:51;11.00;60.00
82183;DHT22;71763;52.220;13.000;2023-10-09T07:14:18;11.00;60.00
82183;DHT22;71763;52.220;13.000;2023-10-09T07:19:31;11.00;60.00
82183;DHT22;71763;52.220;13.000;2023-10-09T07:22:00;11.10;60.00
82183;DHT22;71763;52.220;13.000;2023-10-09T07:24:31;11.10;59.90
82183;DHT22;71763;52.220;13.000;2023-10-09T07:27:17;11.10;59.90
82183;DHT22;71763;52.220;13.000;2023-10-09T07:29:45;11.10;59.90
82183;DHT22;71763;52.220;13.000;2023-10-09T07:32:17;11.20;60.00
82183;DHT22;71763;52.220;13.000;2023-10-09T07:34:47;11.20;60.00
82183;DHT22;71763;52.220;13.000;2023-10-09T07:37:20;11.20;59.90
82183;DHT22;71763;52.220;13.000;2023-10-09T07:39:51;11.30;59.80
82183;DHT22;71763;52.220;13.000;2023-10-09T07:42:26;11.40;59.80
82183;DHT22;71763;52.220;13.000;2023-10-09T07:44:59;11.40;59.80
82183;DHT22;71763;52.220;13.000;2023-10-09T07:47:36;11.30;59.70
82183;DHT22;71763;52.220;13.000;2023-10-09T07:50:27;11.40;59.90
82183;DHT22;71763;52.220;13.000;2023-10-09T07:53:05;11.30;59.90
82183;DHT22;71763;52.220;13.000;2023-10-09T07:55:49;11.30;60.00
82183;DHT22;71763;52.220;13.000;2023-10-09T07:58:22;11.30;60.10
82183;DHT22;71763;52.220;13.000;2023-10-09T08:00:55;11.30;60.00
82183;DHT22;71763;52.220;13.000;2023-10-09T08:03:21;11.30;60.10
82183;DHT22;71763;52.220;13.000;2023-10-09T08:05:51;11.30;60.10
82183;DHT22;71763;52.220;13.000;2023-10-09T08:08:18;11.30;60.10
82183;DHT22;71763;52.220;13.000;2023-10-09T08:10:59;11.30;60.10
82183;DHT22;71763;52.220;13.000;2023-10-09T08:13:43;11.30;60.10
82183;DHT22;71763;52.220;13.000;2023-10-09T08:16:14;11.30;60.20
82183;DHT22;71763;52.220;13.000;2023-10-09T08:18:47;11.30;60.20
82183;DHT22;71763;52.220;13.000;2023-10-09T08:21:19;11.30;60.20
82183;DHT22;71763;52.220;13.000;2023-10-09T08:24:07;11.30;60.30
82183;DHT22;71763;52.220;13.000;2023-10-09T08:26:53;11.30;60.30
82183;DHT22;71763;52.220;13.000;2023-10-09T08:29:39;11.30;60.30
82183;DHT22;71763;52.220;13.000;2023-10-09T08:32:11;11.30;60.30
82183;DHT22;71763;52.220;13.000;2023-10-09T08:35:04;11.30;60.30
82183;DHT22;71763;52.220;13.000;2023-10-09T08:37:31;11.40;60.40
82183;DHT22;71763;52.220;13.000;2023-10-09T08:39:57;11.40;60.40
82183;DHT22;71763;52.220;13.000;2023-10-09T08:42:23;11.40;61.00
82183;DHT22;71763;52.220;13.000;2023-10-09T08:44:51;11.40;60.30
82183;DHT22;71763;52.220;13.000;2023-10-09T08:47:17;11.40;60.40
82183;DHT22;71763;52.220;13.000;2023-10-09T08:49:43;11.40;60.40
82183;DHT22;71763;52.220;13.000;2023-10-09T08:52:08;11.40;60.40
82183;DHT22;71763;52.220;13.000;2023-10-09T08:54:36;11.40;60.30
82183;DHT22;71763;52.220;13.000;2023-10-09T08:57:02;11.40;60.30
82183;DHT22;71763;52.220;13.000;2023-10-09T08:59:28;11.30;60.50
82183;DHT22;71763;52.220;13.000;2023-10-09T09:01:53;11.30;60.60
82183;DHT22;71763;52.220;13.000;2023-10-09T09:04:38;11.30;60.60
82183;DHT22;71763;52.220;13.000;2023-10-09T09:07:05;11.40;60.60
82183;DHT22;71763;52.220;13.000;2023-10-09T09:09:32;11.40;60.50
82183;DHT22;71763;52.220;13.000;2023-10-09T09:11:59;11.40;61.20
82183;DHT22;71763;52.220;13.000;2023-10-09T09:14:36;11.40;60.50
82183;DHT22;71763;52.220;13.000;2023-10-09T09:17:03;11.50;60.50
82183;DHT22;71763;52.220;13.000;2023-10-09T09:19:32;11.40;60.50
82183;DHT22;71763;52.220;13.000;2023-10-09T09:21:58;11.50;60.60
82183;DHT22;71763;52.220;13.000;2023-10-09T09:24:38;11.50;60.70
82183;DHT22;71763;52.220;13.000;2023-10-09T09:27:05;11.50;60.70
82183;DHT22;71763;52.220;13.000;2023-10-09T09:29:46;11.50;60.70
82183;DHT22;71763;52.220;13.000;2023-10-09T09:32:29;11.60;60.60
82183;DHT22;71763;52.220;13.000;2023-10-09T09:35:01;11.50;60.50
82183;DHT22;71763;52.220;13.000;2023-10-09T09:37:28;11.60;60.60
82183;DHT22;71763;52.220;13.000;2023-10-09T09:40:03;11.70;60.70
82183;DHT22;71763;52.220;13.000;2023-10-09T09:42:42;11.70;60.70
82183;DHT22;71763;52.220;13.000;2023-10-09T09:45:10;11.70;61.30
82183;DHT22;71763;52.220;13.000;2023-10-09T09:47:37;11.70;60.60
82183;DHT22;71763;52.220;13.000;2023-10-09T09:50:05;11.80;60.70
82183;DHT22;71763;52.220;13.000;2023-10-09T09:52:37;11.80;60.60
82183;DHT22;71763;52.220;13.000;2023-10-09T09:55:06;11.80;60.50
82183;DHT22;71763;52.220;13.000;2023-10-09T09:57:33;11.90;60.70
82183;DHT22;71763;52.220;13.000;2023-10-09T10:00:07;11.90;60.60
82183;DHT22;71763;52.220;13.000;2023-10-09T10:02:45;11.90;60.60
82183;DHT22;71763;52.220;13.000;2023-10-09T10:05:10;11.90;60.50
82183;DHT22;71763;52.220;13.000;2023-10-09T10:07:38;12.00;60.60
82183;DHT22;71763;52.220;13.000;2023-10-09T10:13:00;12.00;60.70
82183;DHT22;71763;52.220;13.000;2023-10-09T10:18:22;12.10;60.60
82183;DHT22;71763;52.220;13.000;2023-10-09T10:23:44;12.20;60.40
82183;DHT22;71763;52.220;13.000;2023-10-09T10:26:19;12.20;60.40
82183;DHT22;71763;52.220;13.000;2023-10-09T10:29:19;12.20;60.50
82183;DHT22;71763;52.220;13.000;2023-10-09T10:31:55;12.30;60.60
82183;DHT22;71763;52.220;13.000;2023-10-09T10:34:22;12.30;60.50
82183;DHT22;71763;52.220;13.000;2023-10-09T10:36:50;12.30;60.40
82183;DHT22;71763;52.220;13.000;2023-10-09T10:39:18;12.40;60.40
82183;DHT22;71763;52.220;13.000;2023-10-09T10:41:54;12.40;60.30
82183;DHT22;71763;52.220;13.000;2023-10-09T10:44:26;12.50;60.30
82183;DHT22;71763;52.220;13.000;2023-10-09T10:47:09;12.50;60.30
82183;DHT22;71763;52.220;13.000;2023-10-09T10:49:49;12.50;60.20
82183;DHT22;71763;52.220;13.000;2023-10-09T10:52:24;12.70;60.00
82183;DHT22;71763;52.220;13.000;2023-10-09T10:55:12;12.80;59.90
82183;DHT22;71763;52.220;13.000;2023-10-09T10:58:15;12.90;60.00
82183;DHT22;71763;52.220;13.000;2023-10-09T11:00:52;13.00;60.10
82183;DHT22;71763;52.220;13.000;2023-10-09T11:03:25;13.00;60.10
82183;DHT22;71763;52.220;13.000;2023-10-09T11:06:09;13.10;60.20
82183;DHT22;71763;52.220;13.000;2023-10-09T11:08:44;13.10;60.20
82183;DHT22;71763;52.220;13.000;2023-10-09T11:11:19;13.10;60.20
82183;DHT22;71763;52.220;13.000;2023-10-09T11:13:45;13.10;60.20
82183;DHT22;71763;52.220;13.000;2023-10-09T11:16:24;13.10;60.20
82183;DHT22;71763;52.220;13.000;2023-10-09T11:19:13;13.30;60.40
82183;DHT22;71763;52.220;13.000;2023-10-09T11:22:09;13.30;60.40
82183;DHT22;71763;52.220;13.000;2023-10-09T11:24:34;13.40;60.50
82183;DHT22;71763;52.220;13.000;2023-10-09T11:27:06;13.40;60.50
82183;DHT22;71763;52.220;13.000;2023-10-09T11:29:35;13.50;60.60
82183;DHT22;71763;52.220;13.000;2023-10-09T11:32:17;13.40;60.50
82183;DHT22;71763;52.220;13.000;2023-10-09T11:35:14;13.40;60.50
82183;DHT22;71763;52.220;13.000;2023-10-09T11:37:58;13.40;60.50
82183;DHT22;71763;52.220;13.000;2023-10-09T11:40:29;13.40;60.50
82183;DHT22;71763;52.220;13.000;2023-10-09T11:43:45;13.40;60.50
82183;DHT22;71763;52.220;13.000;2023-10-09T11:46:18;13.40;60.50
82183;DHT22;71763;52.220;13.000;2023-10-09T11:49:09;13.30;60.40
82183;DHT22;71763;52.220;13.000;2023-10-09T11:51:47;13.20;60.30
82183;DHT22;71763;52.220;13.000;2023-10-09T11:54:33;13.20;60.50
82183;DHT22;71763;52.220;13.000;2023-10-09T11:56:59;13.10;60.70
82183;DHT22;71763;52.220;13.000;2023-10-09T11:59:27;13.10;60.80
82183;DHT22;71763;52.220;13.000;2023-10-09T12:01:53;13.10;60.80
82183;DHT22;71763;52.220;13.000;2023-10-09T12:04:20;13.10;60.90
82183;DHT22;71763;52.220;13.000;2023-10-09T12:06:45;13.20;60.70
82183;DHT22;71763;52.220;13.000;2023-10-09T12:09:11;13.30;60.40
82183;DHT22;71763;52.220;13.000;2023-10-09T12:11:49;13.40;60.50
82183;DHT22;71763;52.220;13.000;2023-10-09T12:14:18;13.50;60.60
82183;DHT22;71763;52.220;13.000;2023-10-09T12:16:49;13.50;60.60
82183;DHT22;71763;52.220;13.000;2023-10-09T12:19:15;13.50;60.60
82183;DHT22;71763;52.220;13.000;2023-10-09T12:21:41;13.50;60.60
82183;DHT22;71763;52.220;13.000;2023-10-09T12:24:08;13.50;60.60
82183;DHT22;71763;52.220;13.000;2023-10-09T12:26:37;13.40;60.50
82183;DHT22;71763;52.220;13.000;2023-10-09T12:29:04;13.40;60.50
82183;DHT22;71763;52.220;13.000;2023-10-09T12:31:36;13.50;60.60
82183;DHT22;71763;52.220;13.000;2023-10-09T12:34:02;13.50;60.60
82183;DHT22;71763;52.220;13.000;2023-10-09T12:36:28;13.50;60.60
82183;DHT22;71763;52.220;13.000;2023-10-09T12:38:54;13.60;60.70
82183;DHT22;71763;52.220;13.000;2023-10-09T12:41:24;13.60;60.70
82183;DHT22;71763;52.220;13.000;2023-10-09T12:43:54;13.60;60.70
82183;DHT22;71763;52.220;13.000;2023-10-09T12:46:20;13.60;60.70
82183;DHT22;71763;52.220;13.000;2023-10-09T12:48:53;13.60;60.70
82183;DHT22;71763;52.220;13.000;2023-10-09T12:51:20;13.60;60.70
82183;DHT22;71763;52.220;13.000;2023-10-09T12:53:51;13.60;60.70
82183;DHT22;71763;52.220;13.000;2023-10-09T12:56:25;13.60;60.70
82183;DHT22;71763;52.220;13.000;2023-10-09T12:59:04;13.60;60.70
82183;DHT22;71763;52.220;13.000;2023-10-09T13:01:33;13.50;60.60
82183;DHT22;71763;52.220;13.000;2023-10-09T13:04:08;13.50;60.60
82183;DHT22;71763;52.220;13.000;2023-10-09T13:06:37;13.60;60.70
82183;DHT22;71763;52.220;13.000;2023-10-09T13:09:12;13.60;60.70
82183;DHT22;71763;52.220;13.000;2023-10-09T13:11:44;13.60;60.70
82183;DHT22;71763;52.220;13.000;2023-10-09T13:14:13;13.60;60.70
82183;DHT22;71763;52.220;13.000;2023-10-09T13:16:48;13.60;60.70
82183;DHT22;71763;52.220;13.000;2023-10-09T13:19:18;13.60;60.70
82183;DHT22;71763;52.220;13.000;2023-10-09T13:21:44;13.60;60.70
82183;DHT22;71763;52.220;13.000;2023-10-09T13:24:09;13.60;60.70
82183;DHT22;71763;52.220;13.000;2023-10-09T13:26:42;13.60;60.70
82183;DHT22;71763;52.220;13.000;2023-10-09T13:29:10;13.60;60.70
82183;DHT22;71763;52.220;13.000;2023-10-09T13:31:37;13.60;60.70
82183;DHT22;71763;52.220;13.000;2023-10-09T13:34:04;13.60;60.70
82183;DHT22;71763;52.220;13.000;2023-10-09T13:36:32;13.60;60.70
82183;DHT22;71763;52.220;13.000;2023-10-09T13:39:06;13.60;60.70
82183;DHT22;71763;52.220;13.000;2023-10-09T13:41:59;13.60;60.70
82183;DHT22;71763;52.220;13.000;2023-10-09T13:44:29;13.50;60.60
82183;DHT22;71763;52.220;13.000;2023-10-09T13:46:55;13.50;60.80
82183;DHT22;71763;52.220;13.000;2023-10-09T13:49:21;13.50;61.00
82183;DHT22;71763;52.220;13.000;2023-10-09T13:51:48;13.40;61.10
82183;DHT22;71763;52.220;13.000;2023-10-09T13:54:16;13.40;61.30
82183;DHT22;71763;52.220;13.000;2023-10-09T13:57:05;13.40;61.40
82183;DHT22;71763;52.220;13.000;2023-10-09T13:59:32;13.40;61.30
82183;DHT22;71763;52.220;13.000;2023-10-09T14:02:00;13.40;61.30
82183;DHT22;71763;52.220;13.000;2023-10-09T14:04:28;13.40;61.20
82183;DHT22;71763;52.220;13.000;2023-10-09T14:06:53;13.40;61.30
82183;DHT22;71763;52.220;13.000;2023-10-09T14:09:23;13.40;61.20
82183;DHT22;71763;52.220;13.000;2023-10-09T14:12:05;13.30;61.20
82183;DHT22;71763;52.220;13.000;2023-10-09T14:14:45;13.30;61.30
82183;DHT22;71763;52.220;13.000;2023-10-09T14:17:18;13.30;61.40
82183;DHT22;71763;52.220;13.000;2023-10-09T14:19:54;13.30;61.40
82183;DHT22;71763;52.220;13.000;2023-10-09T14:22:22;13.30;61.40
82183;DHT22;71763;52.220;13.000;2023-10-09T14:24:52;13.30;61.40
82183;DHT22;71763;52.220;13.000;2023-10-09T14:27:21;13.20;61.50
82183;DHT22;71763;52.220;13.000;2023-10-09T14:29:51;13.20;61.50
82183;DHT22;71763;52.220;13.000;2023-10-09T14:32:17;13.20;61.50
82183;DHT22;71763;52.220;13.000;2023-10-09T14:34:43;13.20;61.40
82183;DHT22;71763;52.220;13.000;2023-10-09T14:37:15;13.20;61.40
82183;DHT22;71763;52.220;13.000;2023-10-09T14:39:44;13.20;61.50
82183;DHT22;71763;52.220;13.000;2023-10-09T14:42:16;13.20;61.50
82183;DHT22;71763;52.220;13.000;2023-10-09T14:44:42;13.20;61.50
82183;DHT22;71763;52.220;13.000;2023-10-09T14:47:10;13.20;61.50
82183;DHT22;71763;52.220;13.000;2023-10-09T14:49:36;13.20;61.50
82183;DHT22;71763;52.220;13.000;2023-10-09T14:52:09;13.20;61.80
82183;DHT22;71763;52.220;13.000;2023-10-09T14:54:36;13.20;61.70
82183;DHT22;71763;52.220;13.000;2023-10-09T14:57:02;13.20;61.50
82183;DHT22;71763;52.220;13.000;2023-10-09T14:59:32;13.30;61.50
82183;DHT22;71763;52.220;13.000;2023-10-09T15:01:58;13.30;61.40
82183;DHT22;71763;52.220;13.000;2023-10-09T15:04:24;13.20;61.30
82183;DHT22;71763;52.220;13.000;2023-10-09T15:06:54;13.30;61.40
82183;DHT22;71763;52.220;13.000;2023-10-09T15:09:19;13.30;61.50
82183;DHT22;71763;52.220;13.000;2023-10-09T15:11:49;13.30;61.40
82183;DHT22;71763;52.220;13.000;2023-10-09T15:14:15;13.30;61.40
82183;DHT22;71763;52.220;13.000;2023-10-09T15:16:41;13.30;61.40
82183;DHT22;71763;52.220;13.000;2023-10-09T15:19:08;13.30;61.60
82183;DHT22;71763;52.220;13.000;2023-10-09T15:21:36;13.30;61.60
82183;DHT22;71763;52.220;13.000;2023-10-09T15:24:08;13.30;61.60
82183;DHT22;71763;52.220;13.000;2023-10-09T15:26:34;13.30;61.60
82183;DHT22;71763;52.220;13.000;2023-10-09T15:29:00;13.20;61.60
82183;DHT22;71763;52.220;13.000;2023-10-09T15:31:29;13.20;61.60
82183;DHT22;71763;52.220;13.000;2023-10-09T15:33:56;13.20;61.70
82183;DHT22;71763;52.220;13.000;2023-10-09T15:36:23;13.20;61.70
82183;DHT22;71763;52.220;13.000;2023-10-09T15:38:50;13.20;61.70
82183;DHT22;71763;52.220;13.000;2023-10-09T15:41:16;13.20;61.80
82183;DHT22;71763;52.220;13.000;2023-10-09T15:43:44;13.20;61.80
82183;DHT22;71763;52.220;13.000;2023-10-09T15:46:11;13.20;61.80
82183;DHT22;71763;52.220;13.000;2023-10-09T15:48:40;13.20;62.00
82183;DHT22;71763;52.220;13.000;2023-10-09T15:51:10;13.20;61.90
82183;DHT22;71763;52.220;13.000;2023-10-09T15:53:40;13.20;62.60
82183;DHT22;71763;52.220;13.000;2023-10-09T15:56:06;13.20;62.00
82183;DHT22;71763;52.220;13.000;2023-10-09T15:58:32;13.20;61.90
82183;DHT22;71763;52.220;13.000;2023-10-09T16:00:58;13.10;61.90
82183;DHT22;71763;52.220;13.000;2023-10-09T16:03:25;13.20;61.90